Archived

This topic is now archived and is closed to further replies.

davidv

Asa Weather Depiction Problem

Recommended Posts

Hello,I've been using ASA for a while and I'm quite pleased with it. I did encounter a problem tonight though.I was on the last leg of a two part flight from CYQA to CYKZ then on to CYKF flown in sim session. When I arrived at CYKF the metar showed: CYKF 310122Z AUTO 09004KT 1SM -SN BKN010 OVC015 M04/M06 A2980.However when I flew the approach and landed the weather was nothing like this (see screenshots). I encountered no clouds at all and visibility only dropped to maybe 5 miles. There were a few cumulus stuck to the ground though. The only thing I can think of was that for the first flight (CYQA to CYKZ) I imported my flightplan and had VATSIM weather on, then just left that flightplan up while I flew the second flight (CYKZ to CYKF). Any ideas?

Share this post


Link to post
Share on other sites
Help AVSIM continue to serve you!
Please donate today!

Hi,Not sure, especially with night time pictures. I don't think it was the VATSIM option/flightplan stuff.Let's see if this happens again.Thanks,

Share this post


Link to post
Share on other sites